^^
Saratoga-Weather Station Historical Data
Daily Summary for May 24, 2021 Units:  Metric    English   Both
Daily Weekly Monthly Yearly Custom
  High: Low: Average:
Temperature: 23.3 °C 13.3 °C 18.1 °C
Dew Point: 15.4 °C 11.1 °C 12.9 °C
Humidity: 94% 50% 74%
Wind Speed: 17.7km/h 0km/h 3.3km/h
Wind Gust: 20.9km/h - -
Wind- - SE
Pressure: 1023.7 hPa 1021.7 hPa -
Precipitation: 0.0 mm    
Historical Graphs
 
 
Tabular Data for May 24, 2021
Time Temperature Dew Point Pressure Wind Wind Speed Wind Gust Humidity Rainfall Rate (Hourly) solar
00:04 18.1 °C 15 °C 1022.7 hPa NNW 1.4 km/h 1.6 km/h 82% 0.0 mm 0 W/m2
00:09 18.1 °C 15 °C 1022.7 hPa Calm   4.8 km/h 82% 0.0 mm 0 W/m2
00:14 18 °C 15.1 °C 1022.7 hPa ESE 3.2 km/h 3.2 km/h 83% 0.0 mm 0 W/m2
00:19 17.9 °C 15 °C 1022.7 hPa Calm   1.6 km/h 83% 0.0 mm 0 W/m2
00:24 17.9 °C 15 °C 1022.7 hPa East 3.2 km/h 8 km/h 83% 0.0 mm 0 W/m2
00:29 17.9 °C 15 °C 1022.7 hPa East 1.4 km/h 6.4 km/h 83% 0.0 mm 0 W/m2
00:34 17.9 °C 15.2 °C 1022.7 hPa NNE 1.4 km/h 6.4 km/h 84% 0.0 mm 0 W/m2
00:39 17.8 °C 15.1 °C 1022.7 hPa Calm   1.6 km/h 84% 0.0 mm 0 W/m2
00:44 17.8 °C 15.1 °C 1022.7 hPa NE 3.2 km/h 8 km/h 84% 0.0 mm 0 W/m2
00:49 17.8 °C 15.1 °C 1022.7 hPa East 1.4 km/h 3.2 km/h 84% 0.0 mm 0 W/m2
00:54 17.8 °C 15.2 °C 1022.7 hPa Calm   1.6 km/h 85% 0.0 mm 0 W/m2
00:59 17.8 °C 15.2 °C 1022.7 hPa NE 4.7 km/h 4.8 km/h 85% 0.0 mm 0 W/m2
01:04 17.7 °C 15.1 °C 1022.7 hPa NW 1.4 km/h 3.2 km/h 85% 0.0 mm 0 W/m2
01:10 17.7 °C 15.1 °C 1022.7 hPa ESE 1.4 km/h 4.8 km/h 85% 0.0 mm 0 W/m2
01:15 17.7 °C 15.1 °C 1022.7 hPa NNE 1.4 km/h 3.2 km/h 85% 0.0 mm 0 W/m2
01:20 17.7 °C 15.3 °C 1022.7 hPa SE 4.7 km/h 4.8 km/h 86% 0.0 mm 0 W/m2
01:25 17.7 °C 15.3 °C 1022.7 hPa NE 1.4 km/h 4.8 km/h 86% 0.0 mm 0 W/m2
01:30 17.6 °C 15.2 °C 1022.4 hPa ESE 1.4 km/h 9.7 km/h 86% 0.0 mm 0 W/m2
01:35 17.6 °C 15.2 °C 1022.4 hPa SE 3.2 km/h 4.8 km/h 86% 0.0 mm 0 W/m2
01:40 17.6 °C 15.4 °C 1022.4 hPa NW 4.7 km/h 9.7 km/h 87% 0.0 mm 0 W/m2
01:45 17.6 °C 15.4 °C 1022.4 hPa NW 7.9 km/h 8 km/h 87% 0.0 mm 0 W/m2
01:50 17.4 °C 15.2 °C 1022.4 hPa NW 3.2 km/h 4.8 km/h 87% 0.0 mm 0 W/m2
01:55 17.4 °C 15.2 °C 1022.4 hPa ENE 8 km/h 8 km/h 87% 0.0 mm 0 W/m2
02:00 17.3 °C 15.1 °C 1022.4 hPa NNE 6.4 km/h 6.4 km/h 87% 0.0 mm 0 W/m2
02:05 17.3 °C 15.1 °C 1022.4 hPa NE 4.7 km/h 8 km/h 87% 0.0 mm 0 W/m2
02:10 17.2 °C 15 °C 1022.4 hPa East 3.2 km/h 3.2 km/h 87% 0.0 mm 0 W/m2
02:15 17.1 °C 14.9 °C 1022.4 hPa North 1.4 km/h 4.8 km/h 87% 0.0 mm 0 W/m2
02:20 16.9 °C 14.9 °C 1022.4 hPa Calm     88% 0.0 mm 0 W/m2
02:25 16.8 °C 14.8 °C 1022.4 hPa West 1.4 km/h 3.2 km/h 88% 0.0 mm 0 W/m2
02:30 16.7 °C 14.9 °C 1022.4 hPa Calm   3.2 km/h 89% 0.0 mm 0 W/m2
02:35 16.6 °C 14.8 °C 1022.4 hPa NW 1.4 km/h 1.6 km/h 89% 0.0 mm 0 W/m2
02:40 16.5 °C 14.7 °C 1022.4 hPa NW 1.4 km/h 3.2 km/h 89% 0.0 mm 0 W/m2
02:45 16.4 °C 14.8 °C 1022.4 hPa Calm   1.6 km/h 90% 0.0 mm 0 W/m2
02:50 16.3 °C 14.7 °C 1022.4 hPa SW 1.4 km/h 3.2 km/h 90% 0.0 mm 0 W/m2
02:55 16.3 °C 14.7 °C 1022.4 hPa NNW 1.4 km/h 6.4 km/h 90% 0.0 mm 0 W/m2
03:00 16.2 °C 14.6 °C 1022.4 hPa SW 3.2 km/h 3.2 km/h 90% 0.0 mm 0 W/m2
03:05 16.1 °C 14.5 °C 1022.4 hPa NE 1.4 km/h 6.4 km/h 90% 0.0 mm 0 W/m2
03:10 16 °C 14.4 °C 1022.4 hPa Calm   3.2 km/h 90% 0.0 mm 0 W/m2
03:15 15.9 °C 14.3 °C 1022.4 hPa ENE 1.4 km/h 4.8 km/h 90% 0.0 mm 0 W/m2
03:20 15.8 °C 14.3 °C 1022.4 hPa Calm   1.6 km/h 91% 0.0 mm 0 W/m2
03:25 15.8 °C 14.3 °C 1022.4 hPa Calm   3.2 km/h 91% 0.0 mm 0 W/m2
03:30 15.7 °C 14.2 °C 1022.4 hPa Calm   1.6 km/h 91% 0.0 mm 0 W/m2
03:35 15.6 °C 14.1 °C 1022.4 hPa Calm   1.6 km/h 91% 0.0 mm 0 W/m2
03:40 15.4 °C 13.9 °C 1022.4 hPa NW 1.4 km/h 3.2 km/h 91% 0.0 mm 0 W/m2
03:45 15.3 °C 14 °C 1022.4 hPa Calm   3.2 km/h 92% 0.0 mm 0 W/m2
03:50 15.3 °C 14 °C 1022.4 hPa WNW 3.2 km/h 4.8 km/h 92% 0.0 mm 0 W/m2
03:55 15.2 °C 13.9 °C 1022.4 hPa WNW 1.4 km/h 3.2 km/h 92% 0.0 mm 0 W/m2
04:01 15.2 °C 13.9 °C 1022.4 hPa WNW 3.2 km/h 4.8 km/h 92% 0.0 mm 0 W/m2
04:06 15.1 °C 13.8 °C 1022.4 hPa WNW 3.2 km/h 6.4 km/h 92% 0.0 mm 0 W/m2
04:11 15.1 °C 13.8 °C 1022.4 hPa North 1.4 km/h 1.6 km/h 92% 0.0 mm 0 W/m2
04:16 15 °C 13.7 °C 1022.4 hPa Calm   6.4 km/h 92% 0.0 mm 0 W/m2
04:21 14.9 °C 13.6 °C 1022.4 hPa NNE 1.4 km/h 1.6 km/h 92% 0.0 mm 0 W/m2
04:26 14.9 °C 13.6 °C 1022.4 hPa Calm   6.4 km/h 92% 0.0 mm 0 W/m2
04:31 14.8 °C 13.5 °C 1022.4 hPa Calm   4.8 km/h 92% 0.0 mm 0 W/m2
04:36 14.7 °C 13.4 °C 1022.4 hPa WSW 1.4 km/h 3.2 km/h 92% 0.0 mm 0 W/m2
04:41 14.6 °C 13.5 °C 1022.4 hPa WSW 1.4 km/h 4.8 km/h 93% 0.0 mm 0 W/m2
04:46 14.6 °C 13.5 °C 1022.4 hPa Calm   1.6 km/h 93% 0.0 mm 0 W/m2
04:51 14.4 °C 13.3 °C 1022.4 hPa WSW 1.4 km/h 3.2 km/h 93% 0.0 mm 0 W/m2
04:56 14.4 °C 13.3 °C 1022.4 hPa Calm   6.4 km/h 93% 0.0 mm 0 W/m2
05:01 14.4 °C 13.3 °C 1022.4 hPa Calm   1.6 km/h 93% 0.0 mm 0 W/m2
05:06 14.3 °C 13.2 °C 1022.7 hPa NW 3.2 km/h 6.4 km/h 93% 0.0 mm 0 W/m2
05:11 14.3 °C 13.2 °C 1022.4 hPa West 1.4 km/h 1.6 km/h 93% 0.0 mm 0 W/m2
05:16 14.3 °C 13.2 °C 1022.7 hPa Calm   4.8 km/h 93% 0.0 mm 0 W/m2
05:21 14.3 °C 13.2 °C 1022.7 hPa WNW 1.4 km/h 3.2 km/h 93% 0.0 mm 0 W/m2
05:26 14.3 °C 13.2 °C 1022.7 hPa Calm     93% 0.0 mm 0 W/m2
05:31 14.2 °C 13.1 °C 1022.7 hPa WSW 1.4 km/h 3.2 km/h 93% 0.0 mm 0 W/m2
05:36 14.2 °C 13.2 °C 1022.7 hPa WNW 3.2 km/h 4.8 km/h 94% 0.0 mm 0 W/m2
05:41 14.2 °C 13.2 °C 1022.7 hPa Calm   3.2 km/h 94% 0.0 mm 0 W/m2
05:46 14.2 °C 13.2 °C 1022.7 hPa West 4.7 km/h 4.8 km/h 94% 0.0 mm 0 W/m2
05:51 14.1 °C 13.1 °C 1022.4 hPa NW 4.7 km/h 4.8 km/h 94% 0.0 mm 0 W/m2
05:56 14.1 °C 13.1 °C 1022.7 hPa Calm   1.6 km/h 94% 0.0 mm 0 W/m2
06:01 14 °C 13 °C 1022.7 hPa Calm   1.6 km/h 94% 0.0 mm 0 W/m2
06:06 13.9 °C 12.8 °C 1022.7 hPa Calm   4.8 km/h 93% 0.0 mm 0 W/m2
06:11 13.9 °C 12.9 °C 1022.7 hPa WNW 3.2 km/h 3.2 km/h 94% 0.0 mm 0 W/m2
06:16 13.8 °C 12.9 °C 1023.0 hPa Calm   1.6 km/h 94% 0.0 mm 0 W/m2
06:21 13.8 °C 12.9 °C 1023.0 hPa West 1.4 km/h 3.2 km/h 94% 0.0 mm 0 W/m2
06:26 13.7 °C 12.8 °C 1023.0 hPa Calm   4.8 km/h 94% 0.0 mm 0 W/m2
06:31 13.7 °C 12.8 °C 1023.0 hPa Calm   1.6 km/h 94% 0.0 mm 0 W/m2
06:36 13.7 °C 12.8 °C 1023.0 hPa WSW 3.2 km/h 4.8 km/h 94% 0.0 mm 0 W/m2
06:41 13.6 °C 12.7 °C 1023.0 hPa WSW 1.4 km/h 3.2 km/h 94% 0.0 mm 0 W/m2
06:46 13.5 °C 12.6 °C 1023.0 hPa WSW 4.7 km/h 4.8 km/h 94% 0.0 mm 7 W/m2
06:51 13.4 °C 12.5 °C 1023.0 hPa Calm     94% 0.0 mm 9 W/m2
06:56 13.4 °C 12.5 °C 1023.4 hPa Calm   3.2 km/h 94% 0.0 mm 12 W/m2
07:01 13.4 °C 12.5 °C 1023.4 hPa Calm     94% 0.0 mm 14 W/m2
07:06 13.3 °C 12.4 °C 1023.4 hPa Calm   3.2 km/h 94% 0.0 mm 18 W/m2
07:11 13.3 °C 12.4 °C 1023.4 hPa Calm     94% 0.0 mm 21 W/m2
07:16 13.3 °C 12.4 °C 1023.4 hPa WNW 1.4 km/h 3.2 km/h 94% 0.0 mm 23 W/m2
07:21 13.3 °C 12.4 °C 1023.4 hPa Calm   1.6 km/h 94% 0.0 mm 26 W/m2
07:26 13.3 °C 12.4 °C 1023.4 hPa Calm   1.6 km/h 94% 0.0 mm 28 W/m2
07:31 13.3 °C 12.4 °C 1023.4 hPa ESE 1.4 km/h 3.2 km/h 94% 0.0 mm 32 W/m2
07:36 13.4 °C 12.5 °C 1023.4 hPa Calm   3.2 km/h 94% 0.0 mm 33 W/m2
07:41 13.4 °C 12.5 °C 1023.4 hPa Calm     94% 0.0 mm 35 W/m2
07:46 13.4 °C 12.5 °C 1023.4 hPa ESE 1.4 km/h 3.2 km/h 94% 0.0 mm 39 W/m2
07:51 13.4 °C 12.5 °C 1023.4 hPa Calm   3.2 km/h 94% 0.0 mm 40 W/m2
07:56 13.6 °C 12.7 °C 1023.4 hPa NNW 1.4 km/h 3.2 km/h 94% 0.0 mm 42 W/m2
08:02 13.6 °C 12.7 °C 1023.7 hPa NNW 1.4 km/h 3.2 km/h 94% 0.0 mm 44 W/m2
08:07 13.7 °C 12.8 °C 1023.7 hPa NNW 1.4 km/h 6.4 km/h 94% 0.0 mm 46 W/m2
08:12 13.8 °C 12.9 °C 1023.7 hPa Calm   3.2 km/h 94% 0.0 mm 47 W/m2
08:17 14 °C 12.9 °C 1023.7 hPa Calm   3.2 km/h 93% 0.0 mm 49 W/m2
08:22 14.1 °C 13 °C 1023.7 hPa NNW 1.4 km/h 4.8 km/h 93% 0.0 mm 49 W/m2
08:27 14.3 °C 13.2 °C 1023.7 hPa ESE 4.7 km/h 4.8 km/h 93% 0.0 mm 90 W/m2
08:32 14.6 °C 13.3 °C 1023.7 hPa SSE 3.2 km/h 4.8 km/h 92% 0.0 mm 156 W/m2
08:37 14.8 °C 13.3 °C 1023.7 hPa ENE 4.7 km/h 6.4 km/h 91% 0.0 mm 202 W/m2
08:42 15 °C 13.2 °C 1023.7 hPa ENE 3.2 km/h 8 km/h 89% 0.0 mm 216 W/m2
08:47 15.2 °C 13.4 °C 1023.7 hPa East 1.4 km/h 4.8 km/h 89% 0.0 mm 234 W/m2
08:52 15.3 °C 13.1 °C 1023.7 hPa ENE 4.7 km/h 9.7 km/h 87% 0.0 mm 246 W/m2
08:57 15.4 °C 13.1 °C 1023.7 hPa NE 3.2 km/h 6.4 km/h 86% 0.0 mm 258 W/m2
09:02 15.6 °C 13.1 °C 1023.7 hPa ESE 1.4 km/h 8 km/h 85% 0.0 mm 276 W/m2
09:07 15.7 °C 13.4 °C 1023.7 hPa SE 4.7 km/h 8 km/h 86% 0.0 mm 290 W/m2
09:12 15.8 °C 13.1 °C 1023.7 hPa East 3.2 km/h 12.9 km/h 84% 0.0 mm 304 W/m2
09:17 15.9 °C 13.2 °C 1023.4 hPa ENE 3.2 km/h 9.7 km/h 84% 0.0 mm 318 W/m2
09:22 16 °C 13.1 °C 1023.7 hPa WNW 1.4 km/h 3.2 km/h 83% 0.0 mm 79 W/m2
09:27 16.2 °C 13.1 °C 1023.7 hPa ENE 3.2 km/h 9.7 km/h 82% 0.0 mm 69 W/m2
09:32 16.3 °C 13.2 °C 1023.7 hPa East 1.4 km/h 9.7 km/h 82% 0.0 mm 359 W/m2
09:37 16.5 °C 13 °C 1023.4 hPa North 4.7 km/h 8 km/h 80% 0.0 mm 374 W/m2
09:42 16.7 °C 13.2 °C 1023.7 hPa SSE 13 km/h 12.9 km/h 80% 0.0 mm 390 W/m2
09:47 17 °C 13.1 °C 1023.7 hPa East 1.4 km/h 3.2 km/h 78% 0.0 mm 408 W/m2
09:52 17.3 °C 12.8 °C 1023.7 hPa NE 6.4 km/h 12.9 km/h 75% 0.0 mm 420 W/m2
09:57 17.5 °C 12.8 °C 1023.7 hPa NE 6.4 km/h 8 km/h 74% 0.0 mm 432 W/m2
10:02 17.7 °C 12.8 °C 1023.4 hPa East 3.2 km/h 8 km/h 73% 0.0 mm 448 W/m2
10:07 17.9 °C 13 °C 1023.4 hPa SE 4.7 km/h 9.7 km/h 73% 0.0 mm 459 W/m2
10:12 18.1 °C 13.2 °C 1023.4 hPa NE 1.4 km/h 9.7 km/h 73% 0.0 mm 471 W/m2
10:17 18.2 °C 12.6 °C 1023.7 hPa ESE 1.4 km/h 9.7 km/h 70% 0.0 mm 485 W/m2
10:22 18.2 °C 12.4 °C 1023.7 hPa SE 6.4 km/h 17.7 km/h 69% 0.0 mm 496 W/m2
10:27 18.2 °C 12.4 °C 1023.7 hPa East 3.2 km/h 16.1 km/h 69% 0.0 mm 504 W/m2
10:32 18.2 °C 12.2 °C 1023.7 hPa SE 3.2 km/h 14.5 km/h 68% 0.0 mm 517 W/m2
10:37 18.4 °C 12.4 °C 1023.7 hPa SSE 1.4 km/h 8 km/h 68% 0.0 mm 533 W/m2
10:42 18.6 °C 12.8 °C 1023.7 hPa NE 4.7 km/h 12.9 km/h 69% 0.0 mm 541 W/m2
10:47 18.8 °C 12.8 °C 1023.4 hPa NNE 6.4 km/h 6.4 km/h 68% 0.0 mm 552 W/m2
10:52 18.9 °C 12.9 °C 1023.4 hPa ENE 4.7 km/h 9.7 km/h 68% 0.0 mm 568 W/m2
10:57 19 °C 12.3 °C 1023.4 hPa NE 1.4 km/h 11.3 km/h 65% 0.0 mm 584 W/m2
11:02 19.1 °C 11.9 °C 1023.4 hPa North 1.4 km/h 14.5 km/h 63% 0.0 mm 592 W/m2
11:07 19.1 °C 11.9 °C 1023.4 hPa East 13 km/h 17.7 km/h 63% 0.0 mm 608 W/m2
11:12 19.1 °C 11.6 °C 1023.4 hPa NE 3.2 km/h 14.5 km/h 62% 0.0 mm 628 W/m2
11:17 19.2 °C 11.5 °C 1023.4 hPa West 1.4 km/h 17.7 km/h 61% 0.0 mm 642 W/m2
11:22 19.1 °C 11.2 °C 1023.4 hPa ESE 13 km/h 20.9 km/h 60% 0.0 mm 638 W/m2
11:27 19 °C 11.6 °C 1023.4 hPa SE 1.4 km/h 12.9 km/h 62% 0.0 mm 656 W/m2
11:32 19.1 °C 11.4 °C 1023.4 hPa ESE 16.3 km/h 16.1 km/h 61% 0.0 mm 666 W/m2
11:37 19.2 °C 11.5 °C 1023.4 hPa NNE 17.7 km/h 17.7 km/h 61% 0.0 mm 680 W/m2
11:42 19.3 °C 11.3 °C 1023.4 hPa NE 6.4 km/h 9.7 km/h 60% 0.0 mm 694 W/m2
11:47 19.4 °C 11.4 °C 1023.4 hPa NE 4.7 km/h 12.9 km/h 60% 0.0 mm 689 W/m2
11:52 19.5 °C 11.8 °C 1023.4 hPa East 6.4 km/h 8 km/h 61% 0.0 mm 696 W/m2
11:57 19.7 °C 11.7 °C 1023.4 hPa NNW 1.4 km/h 14.5 km/h 60% 0.0 mm 710 W/m2
12:02 19.7 °C 11.2 °C 1023.4 hPa NNW 13 km/h 17.7 km/h 58% 0.0 mm 722 W/m2
12:07 19.7 °C 11.7 °C 1023.4 hPa East 4.7 km/h 12.9 km/h 60% 0.0 mm 742 W/m2
12:12 19.8 °C 11.3 °C 1023.4 hPa ESE 4.7 km/h 14.5 km/h 58% 0.0 mm 756 W/m2
12:17 19.9 °C 11.4 °C 1023.4 hPa SE 4.7 km/h 12.9 km/h 58% 0.0 mm 791 W/m2
12:22 19.9 °C 11.4 °C 1023.4 hPa NE 6.4 km/h 17.7 km/h 58% 0.0 mm 798 W/m2
12:27 20 °C 11.2 °C 1023.0 hPa East 3.2 km/h 20.9 km/h 57% 0.0 mm 758 W/m2
12:32 20.2 °C 11.7 °C 1023.0 hPa ESE 4.7 km/h 8 km/h 58% 0.0 mm 761 W/m2
12:37 20.4 °C 11.6 °C 1023.4 hPa NE 3.2 km/h 20.9 km/h 57% 0.0 mm 788 W/m2
12:42 20.6 °C 11.5 °C 1023.4 hPa NW 4.7 km/h 14.5 km/h 56% 0.0 mm 816 W/m2
12:47 20.5 °C 11.4 °C 1023.4 hPa East 6.4 km/h 20.9 km/h 56% 0.0 mm 751 W/m2
12:52 20.4 °C 11.1 °C 1023.4 hPa ENE 6.4 km/h 19.3 km/h 55% 0.0 mm 752 W/m2
12:57 20.4 °C 11.1 °C 1023.0 hPa NE 6.4 km/h 16.1 km/h 55% 0.0 mm 749 W/m2
13:02 20.4 °C 11.3 °C 1023.0 hPa SE 3.2 km/h 19.3 km/h 56% 0.0 mm 763 W/m2
13:07 20.5 °C 11.4 °C 1023.0 hPa NNE 16.3 km/h 16.1 km/h 56% 0.0 mm 761 W/m2
13:12 20.5 °C 11.4 °C 1023.0 hPa WNW 3.2 km/h 14.5 km/h 56% 0.0 mm 766 W/m2
13:17 20.7 °C 11.6 °C 1022.7 hPa NE 4.7 km/h 14.5 km/h 56% 0.0 mm 768 W/m2
13:22 20.8 °C 11.4 °C 1022.7 hPa ENE 13 km/h 12.9 km/h 55% 0.0 mm 772 W/m2
13:27 20.8 °C 11.7 °C 1022.7 hPa Calm   8 km/h 56% 0.0 mm 777 W/m2
13:32 20.9 °C 11.2 °C 1022.7 hPa East 11.1 km/h 11.3 km/h 54% 0.0 mm 773 W/m2
13:37 20.9 °C 11.2 °C 1022.7 hPa South 6.4 km/h 12.9 km/h 54% 0.0 mm 772 W/m2
13:42 20.9 °C 11.2 °C 1022.7 hPa NE 11.1 km/h 16.1 km/h 54% 0.0 mm 779 W/m2
13:47 21 °C 11.3 °C 1022.7 hPa SE 4.7 km/h 9.7 km/h 54% 0.0 mm 777 W/m2
13:52 21.1 °C 11.4 °C 1022.7 hPa ENE 9.7 km/h 11.3 km/h 54% 0.0 mm 773 W/m2
13:57 21.2 °C 11.2 °C 1022.7 hPa SW 6.4 km/h 17.7 km/h 53% 0.0 mm 777 W/m2
14:02 21.3 °C 11.3 °C 1022.7 hPa NNW 3.2 km/h 11.3 km/h 53% 0.0 mm 768 W/m2
14:07 21.4 °C 11.4 °C 1022.7 hPa East 4.7 km/h 17.7 km/h 53% 0.0 mm 782 W/m2
14:12 21.6 °C 11.6 °C 1022.7 hPa North 1.4 km/h 11.3 km/h 53% 0.0 mm 780 W/m2
14:17 21.7 °C 11.4 °C 1022.7 hPa ENE 7.9 km/h 9.7 km/h 52% 0.0 mm 772 W/m2
14:22 21.7 °C 11.4 °C 1022.7 hPa East 9.7 km/h 12.9 km/h 52% 0.0 mm 777 W/m2
14:27 21.6 °C 11.3 °C 1022.7 hPa NNW 4.7 km/h 14.5 km/h 52% 0.0 mm 775 W/m2
14:32 21.6 °C 11.6 °C 1022.7 hPa North 3.2 km/h 14.5 km/h 53% 0.0 mm 772 W/m2
14:38 21.8 °C 12.1 °C 1022.4 hPa NNW 1.4 km/h 14.5 km/h 54% 0.0 mm 766 W/m2
14:43 21.7 °C 11.4 °C 1022.4 hPa NW 1.4 km/h 16.1 km/h 52% 0.0 mm 758 W/m2
14:48 21.7 °C 12 °C 1022.4 hPa ENE 6.4 km/h 17.7 km/h 54% 0.0 mm 756 W/m2
14:53 21.8 °C 12.1 °C 1022.7 hPa SE 4.7 km/h 14.5 km/h 54% 0.0 mm 752 W/m2
14:58 21.8 °C 11.8 °C 1022.7 hPa WNW 6.4 km/h 11.3 km/h 53% 0.0 mm 749 W/m2
15:03 21.9 °C 12.5 °C 1022.4 hPa Calm   6.4 km/h 55% 0.0 mm 744 W/m2
15:08 22.2 °C 11.9 °C 1022.7 hPa SE 6.4 km/h 11.3 km/h 52% 0.0 mm 740 W/m2
15:13 22.1 °C 12.1 °C 1022.7 hPa ENE 13 km/h 19.3 km/h 53% 0.0 mm 731 W/m2
15:18 22.1 °C 12.1 °C 1022.4 hPa ENE 4.7 km/h 9.7 km/h 53% 0.0 mm 726 W/m2
15:23 22.1 °C 11.8 °C 1022.7 hPa ENE 7.9 km/h 19.3 km/h 52% 0.0 mm 717 W/m2
15:28 22.2 °C 12.2 °C 1022.4 hPa ESE 6.4 km/h 12.9 km/h 53% 0.0 mm 712 W/m2
15:33 22.2 °C 11.9 °C 1022.4 hPa NE 4.7 km/h 12.9 km/h 52% 0.0 mm 703 W/m2
15:38 22.3 °C 12 °C 1022.4 hPa NNW 6.4 km/h 12.9 km/h 52% 0.0 mm 701 W/m2
15:43 22.4 °C 12.1 °C 1022.4 hPa Calm   11.3 km/h 52% 0.0 mm 694 W/m2
15:48 22.7 °C 12.3 °C 1022.4 hPa ESE 3.2 km/h 8 km/h 52% 0.0 mm 684 W/m2
15:53 22.6 °C 11.6 °C 1022.4 hPa ESE 4.7 km/h 16.1 km/h 50% 0.0 mm 677 W/m2
15:58 22.6 °C 12.8 °C 1022.4 hPa SE 1.4 km/h 8 km/h 54% 0.0 mm 668 W/m2
16:03 22.7 °C 12 °C 1022.4 hPa ENE 3.2 km/h 17.7 km/h 51% 0.0 mm 661 W/m2
16:08 22.7 °C 12.3 °C 1022.4 hPa East 4.7 km/h 14.5 km/h 52% 0.0 mm 652 W/m2
16:13 22.6 °C 12.2 °C 1022.4 hPa East 9.7 km/h 17.7 km/h 52% 0.0 mm 647 W/m2
16:18 22.7 °C 12 °C 1022.4 hPa ESE 6.4 km/h 11.3 km/h 51% 0.0 mm 635 W/m2
16:23 22.7 °C 12.3 °C 1022.4 hPa ENE 6.4 km/h 14.5 km/h 52% 0.0 mm 626 W/m2
16:28 22.8 °C 12.4 °C 1022.4 hPa NE 7.9 km/h 17.7 km/h 52% 0.0 mm 617 W/m2
16:33 22.7 °C 12.6 °C 1022.4 hPa NNE 3.2 km/h 12.9 km/h 53% 0.0 mm 608 W/m2
16:38 22.8 °C 12.4 °C 1022.4 hPa East 3.2 km/h 8 km/h 52% 0.0 mm 596 W/m2
16:43 22.8 °C 12.4 °C 1022.4 hPa WNW 4.7 km/h 12.9 km/h 52% 0.0 mm 587 W/m2
16:48 22.8 °C 12.7 °C 1022.0 hPa Calm   8 km/h 53% 0.0 mm 580 W/m2
16:53 23.1 °C 12.7 °C 1022.0 hPa East 3.2 km/h 8 km/h 52% 0.0 mm 564 W/m2
16:58 23.2 °C 12.5 °C 1022.0 hPa North 13 km/h 14.5 km/h 51% 0.0 mm 599 W/m2
17:03 23.2 °C 12.8 °C 1022.0 hPa NNW 3.2 km/h 8 km/h 52% 0.0 mm 575 W/m2
17:08 23 °C 12.6 °C 1022.0 hPa ENE 9.7 km/h 19.3 km/h 52% 0.0 mm 540 W/m2
17:13 22.9 °C 13.1 °C 1022.0 hPa ESE 4.7 km/h 6.4 km/h 54% 0.0 mm 529 W/m2
17:18 23 °C 12.3 °C 1022.0 hPa East 4.7 km/h 19.3 km/h 51% 0.0 mm 436 W/m2
17:23 23.1 °C 12.7 °C 1022.0 hPa NE 11.1 km/h 11.3 km/h 52% 0.0 mm 501 W/m2
17:28 23.1 °C 12.7 °C 1022.0 hPa SE 7.9 km/h 19.3 km/h 52% 0.0 mm 513 W/m2
17:33 23 °C 12.6 °C 1022.0 hPa ESE 3.2 km/h 16.1 km/h 52% 0.0 mm 571 W/m2
17:38 23.3 °C 13.5 °C 1021.7 hPa ENE 4.7 km/h 11.3 km/h 54% 0.0 mm 564 W/m2
17:43 23.2 °C 13.1 °C 1022.0 hPa East 3.2 km/h 19.3 km/h 53% 0.0 mm 144 W/m2
17:48 22.8 °C 13.3 °C 1022.0 hPa East 4.7 km/h 9.7 km/h 55% 0.0 mm 434 W/m2
17:53 22.7 °C 13.7 °C 1022.0 hPa ESE 6.4 km/h 14.5 km/h 57% 0.0 mm 443 W/m2
17:58 22.8 °C 13.8 °C 1022.0 hPa ESE 1.4 km/h 8 km/h 57% 0.0 mm 420 W/m2
18:03 22.7 °C 13.5 °C 1022.0 hPa NE 3.2 km/h 16.1 km/h 56% 0.0 mm 397 W/m2
18:08 22.5 °C 13.3 °C 1022.0 hPa ENE 7.9 km/h 19.3 km/h 56% 0.0 mm 332 W/m2
18:13 22.3 °C 13.6 °C 1022.0 hPa ENE 1.4 km/h 11.3 km/h 58% 0.0 mm 322 W/m2
18:18 22.3 °C 13.4 °C 1022.0 hPa ESE 3.2 km/h 20.9 km/h 57% 0.0 mm 385 W/m2
18:23 22.3 °C 13.4 °C 1022.0 hPa SE 13 km/h 12.9 km/h 57% 0.0 mm 353 W/m2
18:28 22.2 °C 13.3 °C 1022.0 hPa ENE 3.2 km/h 6.4 km/h 57% 0.0 mm 288 W/m2
18:33 22.3 °C 13.4 °C 1022.0 hPa NE 3.2 km/h 9.7 km/h 57% 0.0 mm 327 W/m2
18:38 22.2 °C 13.3 °C 1022.0 hPa ENE 4.7 km/h 19.3 km/h 57% 0.0 mm 229 W/m2
18:43 22.1 °C 13.2 °C 1022.0 hPa ENE 6.4 km/h 12.9 km/h 57% 0.0 mm 258 W/m2
18:48 21.8 °C 13.4 °C 1022.0 hPa NNE 4.7 km/h 16.1 km/h 59% 0.0 mm 227 W/m2
18:53 21.7 °C 13.6 °C 1022.0 hPa ENE 1.4 km/h 14.5 km/h 60% 0.0 mm 230 W/m2
18:58 21.7 °C 13.8 °C 1022.4 hPa East 4.7 km/h 9.7 km/h 61% 0.0 mm 193 W/m2
19:03 21.6 °C 14 °C 1022.4 hPa ESE 6.4 km/h 11.3 km/h 62% 0.0 mm 188 W/m2
19:08 21.3 °C 13.7 °C 1022.4 hPa ENE 6.4 km/h 11.3 km/h 62% 0.0 mm 197 W/m2
19:13 21.1 °C 13 °C 1022.4 hPa East 11.1 km/h 20.9 km/h 60% 0.0 mm 142 W/m2
19:18 20.8 °C 13 °C 1022.4 hPa East 1.4 km/h 16.1 km/h 61% 0.0 mm 155 W/m2
19:23 20.7 °C 13.2 °C 1022.4 hPa ESE 4.7 km/h 20.9 km/h 62% 0.0 mm 86 W/m2
19:28 20.5 °C 12.7 °C 1022.4 hPa NNE 1.4 km/h 9.7 km/h 61% 0.0 mm 120 W/m2
19:33 20.4 °C 12.9 °C 1022.4 hPa NE 6.4 km/h 9.7 km/h 62% 0.0 mm 113 W/m2
19:38 20.4 °C 12.6 °C 1022.4 hPa NE 4.7 km/h 14.5 km/h 61% 0.0 mm 111 W/m2
19:43 20.4 °C 12.6 °C 1022.4 hPa ESE 4.7 km/h 8 km/h 61% 0.0 mm 76 W/m2
19:48 20.3 °C 12.5 °C 1022.4 hPa East 4.7 km/h 9.7 km/h 61% 0.0 mm 35 W/m2
19:53 20.1 °C 12.6 °C 1022.4 hPa ESE 1.4 km/h 6.4 km/h 62% 0.0 mm 18 W/m2
19:58 19.9 °C 12.6 °C 1022.4 hPa Calm   3.2 km/h 63% 0.0 mm 18 W/m2
20:03 19.7 °C 12.5 °C 1022.4 hPa ENE 1.4 km/h 8 km/h 63% 0.0 mm 16 W/m2
20:08 19.6 °C 12.6 °C 1022.4 hPa East 1.4 km/h 9.7 km/h 64% 0.0 mm 14 W/m2
20:13 19.4 °C 12.4 °C 1022.4 hPa East 3.2 km/h 14.5 km/h 64% 0.0 mm 12 W/m2
20:18 19.3 °C 12.8 °C 1022.4 hPa NNE 4.7 km/h 11.3 km/h 66% 0.0 mm 12 W/m2
20:23 19.2 °C 12.7 °C 1022.7 hPa SE 3.2 km/h 9.7 km/h 66% 0.0 mm 9 W/m2
20:28 19 °C 12.5 °C 1022.4 hPa Calm   11.3 km/h 66% 0.0 mm 5 W/m2
20:33 18.8 °C 12.5 °C 1022.4 hPa Calm   4.8 km/h 67% 0.0 mm 0 W/m2
20:38 18.7 °C 12.7 °C 1022.7 hPa East 1.4 km/h 14.5 km/h 68% 0.0 mm 0 W/m2
20:43 18.6 °C 12.6 °C 1022.7 hPa Calm   4.8 km/h 68% 0.0 mm 0 W/m2
20:48 18.5 °C 12.7 °C 1022.7 hPa ENE 1.4 km/h 14.5 km/h 69% 0.0 mm 0 W/m2
20:53 18.4 °C 12.6 °C 1022.7 hPa ESE 4.7 km/h 4.8 km/h 69% 0.0 mm 0 W/m2
20:58 18.3 °C 12.7 °C 1022.7 hPa ENE 1.4 km/h 9.7 km/h 70% 0.0 mm 0 W/m2
21:03 18.2 °C 12.6 °C 1022.7 hPa NE 3.2 km/h 6.4 km/h 70% 0.0 mm 0 W/m2
21:08 18.1 °C 12.8 °C 1023.0 hPa ENE 1.4 km/h 9.7 km/h 71% 0.0 mm 0 W/m2
21:13 18.1 °C 12.8 °C 1023.0 hPa East 1.4 km/h 3.2 km/h 71% 0.0 mm 0 W/m2
21:18 17.9 °C 12.8 °C 1023.0 hPa ENE 3.2 km/h 3.2 km/h 72% 0.0 mm 0 W/m2
21:23 17.8 °C 12.7 °C 1023.0 hPa NE 4.7 km/h 4.8 km/h 72% 0.0 mm 0 W/m2
21:28 17.7 °C 12.6 °C 1023.0 hPa East 1.4 km/h 4.8 km/h 72% 0.0 mm 0 W/m2
21:33 17.6 °C 12.7 °C 1022.7 hPa SSE 3.2 km/h 3.2 km/h 73% 0.0 mm 0 W/m2
21:38 17.6 °C 12.7 °C 1022.7 hPa ESE 1.4 km/h 4.8 km/h 73% 0.0 mm 0 W/m2
21:43 17.4 °C 12.7 °C 1022.7 hPa SE 4.7 km/h 4.8 km/h 74% 0.0 mm 0 W/m2
21:48 17.4 °C 12.7 °C 1022.7 hPa Calm   4.8 km/h 74% 0.0 mm 0 W/m2
21:53 17.3 °C 12.6 °C 1022.7 hPa ESE 1.4 km/h 4.8 km/h 74% 0.0 mm 0 W/m2
21:58 17.2 °C 12.7 °C 1023.0 hPa SE 1.4 km/h 3.2 km/h 75% 0.0 mm 0 W/m2
22:03 17.1 °C 12.8 °C 1022.7 hPa Calm   1.6 km/h 76% 0.0 mm 0 W/m2
22:09 16.9 °C 12.6 °C 1023.0 hPa East 1.4 km/h 4.8 km/h 76% 0.0 mm 0 W/m2
22:14 16.9 °C 12.8 °C 1022.7 hPa East 3.2 km/h 4.8 km/h 77% 0.0 mm 0 W/m2
22:19 16.8 °C 12.7 °C 1022.7 hPa East 1.4 km/h 3.2 km/h 77% 0.0 mm 0 W/m2
22:24 16.7 °C 12.6 °C 1022.7 hPa ESE 1.4 km/h 4.8 km/h 77% 0.0 mm 0 W/m2
22:29 16.6 °C 12.7 °C 1022.7 hPa SE 1.4 km/h 3.2 km/h 78% 0.0 mm 0 W/m2
22:34 16.4 °C 12.6 °C 1022.7 hPa Calm   4.8 km/h 78% 0.0 mm 0 W/m2
22:39 16.3 °C 12.7 °C 1022.7 hPa SE 1.4 km/h 1.6 km/h 79% 0.0 mm 0 W/m2
22:44 16.2 °C 12.6 °C 1022.7 hPa Calm     79% 0.0 mm 0 W/m2
22:49 16 °C 12.6 °C 1022.7 hPa Calm   1.6 km/h 80% 0.0 mm 0 W/m2
22:54 15.8 °C 12.5 °C 1022.7 hPa Calm     81% 0.0 mm 0 W/m2
22:59 15.7 °C 12.6 °C 1022.7 hPa Calm     82% 0.0 mm 0 W/m2
23:04 15.5 °C 12.4 °C 1022.7 hPa Calm     82% 0.0 mm 0 W/m2
23:09 15.4 °C 12.3 °C 1022.7 hPa Calm     82% 0.0 mm 0 W/m2
23:14 15.2 °C 12.3 °C 1022.7 hPa SSW 1.4 km/h 4.8 km/h 83% 0.0 mm 0 W/m2
23:19 15.1 °C 12.4 °C 1022.7 hPa Calm   3.2 km/h 84% 0.0 mm 0 W/m2
23:24 14.9 °C 12.2 °C 1022.7 hPa WSW 3.2 km/h 3.2 km/h 84% 0.0 mm 0 W/m2
23:29 14.9 °C 12.2 °C 1022.7 hPa WSW 3.2 km/h 3.2 km/h 84% 0.0 mm 0 W/m2
23:34 14.9 °C 12.2 °C 1022.7 hPa Calm   1.6 km/h 84% 0.0 mm 0 W/m2
23:39 14.8 °C 12.3 °C 1023.0 hPa WSW 1.4 km/h 1.6 km/h 85% 0.0 mm 0 W/m2
23:44 14.9 °C 12.4 °C 1023.0 hPa WSW 3.2 km/h 4.8 km/h 85% 0.0 mm 0 W/m2
23:49 14.9 °C 12.4 °C 1023.0 hPa WSW 4.7 km/h 4.8 km/h 85% 0.0 mm 0 W/m2
23:54 15 °C 12.3 °C 1023.0 hPa Calm   3.2 km/h 84% 0.0 mm 0 W/m2
23:59 15 °C 12.3 °C 1022.7 hPa WNW 1.4 km/h 3.2 km/h 84% 0.0 mm 0 W/m2
Juneau County Weather
Compliments of Weather Underground - 4 mb